Tiempo atmosférico en la estación meteorológica de Los Tojos, Bárcena Mayor, Cantabria (455 m.)



Fecha
DESCASC
Temp. máxima en grados centígrados (hora)
DESCASC
Temp. mínima en grados centígrados (hora)
DESCASC
Temp. media en grados centígrados
DESCASC
Racha de viento máxima en m/sg (hora)
DESCASC
Velocidad máxima media en intervalos de 10 minutos(hora)
DESCASC
Precipitaciones diarias en mm
DESCASC
Precipitaciones de 00:00 a 06:00 en mm
DESCASC
Precipitaciones de 06:00 a 12:00 en mm
DESCASC
Precipitaciones de 12:00 a 18:00 en mm
DESCASC
Precipitaciones de 18:00 a 24:00 en mm
DESCASC
21-03-2019 14.3 (15:30) -1.9 (07:30) 6.2 6.94 (12:00) 3.61 (15:40) 0 0 0 0 0
20-03-2019 12 (15:20) 0.2 (23:59) 6.1 6.39 (16:20) 3.33 (16:30) 1.4 1.2 0.2 0 0
19-03-2019 8.3 (15:10) 5.1 (03:00) 6.7 8.61 (11:50) 4.17 (11:50) 32.2 7 9.6 11.2 4.4
18-03-2019 10.6 (15:00) 2.4 (02:40) 6.5 8.61 (15:10) 4.17 (17:10) 2.6 1 0.2 0 1.4
17-03-2019 8.9 (08:40) 4.2 (00:00) 6.5 11.11 (11:50) 4.72 (09:40) 4 0 1.4 0.8 1.8
16-03-2019 24.5 (14:10) 0 (00:00) 12.3 6.11 (17:00) 3.33 (13:40) 0 0 0 0 0
15-03-2019 15.9 (15:50) 3.6 (00:00) 9.7 5.83 (15:00) 3.06 (16:20) 0 0 0 0 0
14-03-2019 13 (14:20) 0.7 (00:00) 6.8 7.5 (16:00) 3.89 (15:50) 0 0 0 0 0
13-03-2019 8.8 (11:50) 1.1 (00:00) 5 10.83 (17:30) 5 (12:20) 1 0 0 0.8 0.2
12-03-2019 15.8 (14:20) 1 (00:00) 8.4 11.39 (18:20) 5.83 (18:30) 3.4 0 0 0 3.4
11-03-2019 15.3 (16:20) 3.4 (00:00) 9.4 7.78 (02:10) 4.17 (02:40) 1.4 1.4 0 0 0
10-03-2019 15.8 (13:20) 3.4 (00:00) 9.6 6.39 (17:30) 3.06 (17:30) 2 0 0.4 0.6 1
09-03-2019 20.7 (15:20) 4.9 (00:00) 12.8 8.61 (16:30) 4.17 (16:30) 0 0 0 0 0
08-03-2019 13.9 (15:30) 4.1 (00:00) 9 6.67 (08:00) 3.33 (08:00) 8.6 5 3.6 0 0
07-03-2019 14.1 (14:20) -0.8 (-00:0) 6.7 7.22 (16:40) 3.33 (16:50) 0.2 0.2 0 0 0
06-03-2019 16.7 (01:40) 5.8 (00:00) 11.3 20.28 (02:00) 7.5 (04:20) 5 0.2 3.6 1.2 0
05-03-2019 16 (13:10) -0.6 (-00:0) 7.7 14.17 (23:00) 6.67 (22:50) 0 0 0 0 0
04-03-2019 16.1 (00:20) 5.5 (00:00) 10.8 11.39 (00:40) 5.28 (00:40) 0 0 0 0 0
03-03-2019 23.3 (14:00) 2 (00:00) 12.6 18.89 (22:50) 6.11 (20:20) 0 0 0 0 0
02-03-2019 18.2 (15:20) 2.3 (00:00) 10.3 6.11 (15:00) 2.22 (11:40) 0 0 0 0 0
01-03-2019 16.6 (15:40) -0.4 (00:00) 8.1 5.83 (14:20) 3.33 (12:20) 0 0 0 0 0
28-02-2019 15.6 (13:30) 1 (00:00) 8.3 6.94 (14:00) 3.89 (14:10) 0 0 0 0 0
27-02-2019 23.8 (14:10) 3 (00:00) 13.4 6.94 (15:10) 4.17 (15:00) 0 0 0 0 0
26-02-2019 23.6 (15:50) 0.4 (00:00) 12 8.33 (12:10) 4.72 (12:10) 0 0 0 0 0
25-02-2019 22.5 (14:20) 0.8 (00:00) 11.7 5.83 (13:50) 2.78 (12:40) 0 0 0 0 0
24-02-2019 20.5 (15:00) 0.9 (00:00) 10.7 5.28 (14:10) 3.33 (13:20) 0 0 0 0 0
23-02-2019 17.3 (12:10) -0.3 (00:00) 8.5 6.39 (16:00) 2.78 (12:20) 0 0 0 0 0
22-02-2019 21.6 (14:40) -0.2 (00:00) 10.7 5 (14:20) 2.78 (15:00) 0 0 0 0 0
21-02-2019 19.4 (15:20) -1.4 (-00:0) 9 8.06 (15:00) 2.78 (16:30) 0 0 0 0 0
20-02-2019 16.3 (14:50) -0.2 (00:00) 8 5.56 (16:50) 3.06 (16:50) 0 0 0 0 0

Gráficas

Temp. máximas Temp. mínimas Temp. medias Precipitaciones Rachas de viento máximas Velocidades máximas media en intervalos de 10 minutos

Datos horarios

Fecha y hora oficial Temperatura (ºC) Velocidad del viento (km/h) Dirección del viento Racha (km/h) Dirección de racha Precipitación (mm) Presión (hPa) Tendencia (hPa) Humedad (%)
2019-03-21 23:00:00 2 0 Calma 6 Sur 0 -- -- 98
2019-03-21 22:00:00 3.1 0 Calma 4 Sudeste 0 -- -- 95
2019-03-21 21:00:00 4.4 0 Calma 4 Sudeste 0 -- -- 91
2019-03-21 20:00:00 6.6 2 Sudeste 13 Oeste 0 -- -- 85
2019-03-21 19:00:00 9.7 2 Oeste 12 Este 0 -- -- 77
2019-03-21 18:00:00 11.1 5 Este 18 Oeste 0 -- -- 72
2019-03-21 17:00:00 12.2 9 Este 19 Noroeste 0 -- -- 68
2019-03-21 16:00:00 13.9 9 Noroeste 21 Noroeste 0 -- -- 63
2019-03-21 15:00:00 13.6 4 Sudoeste 13 Oeste 0 -- -- 57
2019-03-21 14:00:00 12.6 4 Sudoeste 15 Sudoeste 0 -- -- 54
2019-03-21 13:00:00 12.1 9 Sudeste 21 Este 0 -- -- 57
2019-03-21 12:00:00 11.4 9 Sudeste 25 Este 0 -- -- 60
2019-03-21 11:00:00 6.2 3 Oeste 6 Noroeste 0 -- -- 81
2019-03-21 10:00:00 2.3 0 Calma 3 Este 0 -- -- 100
2019-03-21 09:00:00 -0.4 0 Calma 4 Sur 0 -- -- 100
2019-03-21 08:00:00 -1.8 3 Este 4 Este 0 -- -- 100
2019-03-21 07:00:00 -1.8 2 Este 4 Este 0 -- -- 100
2019-03-21 06:00:00 -1.6 0 Calma 4 Este 0 -- -- 100
2019-03-21 05:00:00 -1.5 0 Calma 3 Este 0 -- -- 100
2019-03-21 04:00:00 -1.2 0 Calma 4 Este 0 -- -- 100
2019-03-21 03:00:00 -0.9 0 Calma 3 Este 0 -- -- 100
2019-03-21 02:00:00 -0.7 0 Calma 3 Este 0 -- -- 100
2019-03-21 01:00:00 -0.3 3 Sudeste 4 Este 0 -- -- 99
2019-03-21 00:00:00 0.2 0 Calma 3 Sudeste 0 -- -- 99
2019-03-20 23:00:00 0.8 0 Calma 3 Sudeste 0 -- -- 97
2019-03-20 22:00:00 1.7 0 Calma 4 Este 0 -- -- 96
2019-03-20 21:00:00 2.8 0 Calma 4 Sudeste 0 -- -- 93
2019-03-20 20:00:00 4.4 0 Calma 5 Sur 0 -- -- 88
2019-03-20 19:00:00 6.9 3 Sur 12 Sudoeste 0 -- -- 79
2019-03-20 18:00:00 9.6 0 Calma 21 Oeste 0 -- -- 67
2019-03-20 17:00:00 10.3 5 Oeste 23 Oeste 0 -- -- 62
2019-03-20 16:00:00 11.3 5 Noroeste 15 Sudeste 0 -- -- 59
2019-03-20 15:00:00 10.7 6 Norte 19 Noroeste 0 -- -- 65
2019-03-20 14:00:00 10.3 4 Nordeste 15 Este 0 -- -- 71
2019-03-20 13:00:00 9.6 3 Sudeste 21 Sudoeste 0 -- -- 73
2019-03-20 12:00:00 8.6 6 Oeste 17 Oeste 0 -- -- 78
2019-03-20 11:00:00 8.1 5 Oeste 10 Noroeste 0 -- -- 81
2019-03-20 10:00:00 7.5 4 Oeste 11 Oeste 0 -- -- 89
2019-03-20 09:00:00 6.4 4 Noroeste 10 Noroeste 0 -- -- 100
2019-03-20 08:00:00 5.7 2 Noroeste 5 Oeste 0 -- -- 100
2019-03-20 07:00:00 5.6 3 Oeste 4 Oeste 0.2 -- -- 100
2019-03-20 06:00:00 5.8 0 Calma 5 Oeste 0.4 -- -- 100
2019-03-20 05:00:00 5.8 2 Oeste 6 Oeste 0 -- -- 100
2019-03-20 04:00:00 5.8 2 Oeste 4 Oeste 0 -- -- 100
2019-03-20 03:00:00 6 0 Calma 5 Oeste 0 -- -- 100
2019-03-20 02:00:00 6.2 2 Sudoeste 6 Noroeste 0.2 -- -- 100
2019-03-20 01:00:00 6.4 0 Calma 8 Oeste 0.6 -- -- 100
2019-03-20 00:00:00 6.9 5 Oeste 20 Oeste 0 -- -- 95
2019-03-19 23:00:00 6.8 9 Oeste 24 Oeste 0 -- -- 94
2019-03-19 22:00:00 6.6 7 Sudoeste 16 Oeste 0.4 -- -- 98
2019-03-19 21:00:00 6.7 6 Oeste 19 Oeste 1.4 -- -- 99
2019-03-19 20:00:00 6.9 5 Sudoeste 15 Sudoeste 2 -- -- 97
2019-03-19 19:00:00 7.3 7 Sudoeste 14 Sudoeste 0.6 -- -- 97
2019-03-19 18:00:00 7.7 6 Oeste 19 Noroeste 1.8 -- -- 94
2019-03-19 17:00:00 8.1 5 Oeste 20 Oeste 1.2 -- -- 95
2019-03-19 16:00:00 8 12 Oeste 22 Oeste 2 -- -- 92
2019-03-19 15:00:00 8.2 13 Oeste 27 Oeste 0.6 -- -- 93
2019-03-19 14:00:00 7.8 10 Oeste 23 Oeste 2.8 -- -- 95
2019-03-19 13:00:00 7.6 12 Oeste 22 Oeste 2.8 -- -- 94
2019-03-19 12:00:00 7.6 11 Oeste 31 Oeste 1.4 -- -- 93
2019-03-19 11:00:00 7 7 Sudoeste 17 Oeste 2.8 -- -- 97
2019-03-19 10:00:00 6.3 9 Oeste 16 Noroeste 2.4 -- -- 98
2019-03-19 09:00:00 6 6 Oeste 17 Oeste 1.4 -- -- 99
2019-03-19 08:00:00 5.5 6 Oeste 13 Oeste 1 -- -- 99
2019-03-19 07:00:00 5.3 8 Oeste 14 Oeste 0.6 -- -- 99
2019-03-19 06:00:00 5.2 6 Oeste 14 Oeste 1 -- -- 99
2019-03-19 05:00:00 5.1 5 Oeste 14 Oeste 2.4 -- -- 99
2019-03-19 04:00:00 5.2 6 Oeste 12 Oeste 1.4 -- -- 97
2019-03-19 03:00:00 5.1 4 Oeste 14 Oeste 1.2 -- -- 96
2019-03-19 02:00:00 5.6 11 Oeste 23 Oeste 0.8 -- -- 91
2019-03-19 01:00:00 5.6 4 Oeste 14 Oeste 0.2 -- -- 95
2019-03-19 00:00:00 5.6 5 Oeste 12 Sudoeste 0.6 -- -- 95
2019-03-18 23:00:00 5.8 6 Sudoeste 21 Sudoeste 0.6 -- -- 91
2019-03-18 22:00:00 6.3 6 Oeste 16 Oeste 0 -- -- 89
2019-03-18 21:00:00 6.3 4 Oeste 14 Noroeste 0.2 -- -- 91
2019-03-18 20:00:00 6.8 8 Oeste 26 Oeste 0 -- -- 80
2019-03-18 19:00:00 7.1 10 Oeste 24 Noroeste 0 -- -- 77
2019-03-18 18:00:00 7.6 13 Oeste 28 Oeste 0 -- -- 79
2019-03-18 17:00:00 8.1 14 Oeste 24 Oeste 0 -- -- 76
2019-03-18 16:00:00 9.7 8 Noroeste 31 Noroeste 0 -- -- 68
2019-03-18 15:00:00 10.6 8 Oeste 24 Oeste 0 -- -- 69
2019-03-18 14:00:00 9 8 Oeste 24 Noroeste 0 -- -- 72
2019-03-18 13:00:00 8.7 13 Noroeste 24 Noroeste 0 -- -- 78
2019-03-18 12:00:00 8.3 8 Noroeste 19 Noroeste 0 -- -- 76
2019-03-18 11:00:00 6.7 6 Noroeste 17 Oeste 0 -- -- 90
2019-03-18 10:00:00 5.8 5 Oeste 9 Oeste 0 -- -- 92
2019-03-18 09:00:00 4.5 2 Este 3 Este 0.2 -- -- 100
2019-03-18 08:00:00 3.9 0 Calma 4 Sur 0 -- -- 100
2019-03-18 07:00:00 3.8 0 Calma 4 Este 0 -- -- 100
2019-03-18 06:00:00 3.8 0 Calma 5 Sur 0.2 -- -- 100
2019-03-18 05:00:00 3.6 2 Sudeste 5 Este 0.8 -- -- 100
2019-03-18 04:00:00 3.2 2 Este 4 Este 0 -- -- 100
2019-03-18 03:00:00 2.5 0 Calma 3 Sudoeste 0 -- -- 100
2019-03-18 02:00:00 3.3 0 Calma 6 Oeste 0 -- -- 97
2019-03-18 01:00:00 4.1 0 Calma 4 Oeste 0 -- -- 100
2019-03-18 00:00:00 4.2 3 Oeste 5 Noroeste 0 -- -- 99
2019-03-17 23:00:00 4.4 3 Oeste 6 Oeste 0 -- -- 98
2019-03-17 22:00:00 4.6 0 Calma 20 Oeste 0.4 -- -- 95
2019-03-17 21:00:00 4.6 4 Oeste 18 Oeste 0.8 -- -- 93
2019-03-17 20:00:00 5.1 4 Oeste 14 Oeste 0.4 -- -- 95
2019-03-17 19:00:00 5.7 5 Oeste 18 Oeste 0.2 -- -- 91
2019-03-17 18:00:00 6.1 8 Oeste 24 Oeste 0.4 -- -- 87
2019-03-17 17:00:00 6.2 5 Oeste 26 Oeste 0.2 -- -- 88
2019-03-17 16:00:00 7.1 10 Oeste 28 Oeste 0 -- -- 82
2019-03-17 15:00:00 6.9 9 Oeste 24 Noroeste 0 -- -- 84
2019-03-17 14:00:00 6.5 7 Oeste 31 Oeste 0.2 -- -- 88
2019-03-17 13:00:00 7.4 6 Oeste 15 Oeste 0 -- -- 83
2019-03-17 12:00:00 6.4 8 Sudoeste 40 Oeste 0.4 -- -- 88
2019-03-17 11:00:00 6.9 9 Oeste 15 Sudoeste 0.6 -- -- 93
2019-03-17 10:00:00 6.7 7 Oeste 33 Oeste 0.4 -- -- 94
2019-03-17 09:00:00 8.5 17 Oeste 32 Oeste 0 -- -- 89
2019-03-17 08:00:00 6.3 0 Calma 4 Sudeste 0 -- -- 97
2019-03-17 07:00:00 5.8 2 Este 3 Oeste 0 -- -- 96
2019-03-17 06:00:00 6 0 Calma 5 Sur 0 -- -- 94
2019-03-17 05:00:00 7.5 4 Este 6 Este 0 -- -- 93
2019-03-17 04:00:00 7.8 0 Calma 5 Sudoeste 0 -- -- 94
2019-03-17 03:00:00 7.9 3 Oeste 7 Oeste 0 -- -- 92
2019-03-17 02:00:00 7.9 4 Noroeste 12 Norte 0 -- -- 88
2019-03-17 01:00:00 7.9 4 Oeste 10 Noroeste 0 -- -- 90
2019-03-17 00:00:00 8.5 3 Sudoeste 8 Oeste 0 -- -- 90
2019-03-16 23:00:00 8.6 4 Oeste 9 Noroeste 0 -- -- 91
2019-03-16 22:00:00 8.3 3 Oeste 12 Noroeste 0 -- -- 93
2019-03-16 21:00:00 8.5 4 Oeste 13 Noroeste 0 -- -- 89
2019-03-16 20:00:00 10.8 5 Noroeste 13 Noroeste 0 -- -- 78
2019-03-16 19:00:00 14 7 Noroeste 14 Noroeste 0 -- -- 62
2019-03-16 18:00:00 18.8 8 Noroeste 20 Noroeste 0 -- -- 49
2019-03-16 17:00:00 22 11 Noroeste 22 Noroeste 0 -- -- 42
2019-03-16 16:00:00 24 12 Noroeste 20 Noroeste 0 -- -- 36
2019-03-16 15:00:00 24 10 Noroeste 18 Noroeste 0 -- -- 29
2019-03-16 14:00:00 24.4 9 Noroeste 20 Noroeste 0 -- -- 30
2019-03-16 13:00:00 23.4 11 Noroeste 16 Noroeste 0 -- -- 25
2019-03-16 12:00:00 20.9 3 Sudoeste 12 Noroeste 0 -- -- 30
2019-03-16 11:00:00 15.3 3 Oeste 8 Noroeste 0 -- -- 54
2019-03-16 10:00:00 8.2 3 Este 8 Este 0 -- -- 82
2019-03-16 09:00:00 1.8 3 Sudeste 6 Este 0 -- -- 100
2019-03-16 08:00:00 0.2 3 Este 5 Este 0 -- -- 100
2019-03-16 07:00:00 0.2 2 Sudeste 4 Nordeste 0 -- -- 100
2019-03-16 06:00:00 0.6 2 Este 5 Este 0 -- -- 100
2019-03-16 05:00:00 1 3 Sudeste 7 Este 0 -- -- 100
2019-03-16 04:00:00 1.2 0 Calma 5 Este 0 -- -- 100
2019-03-16 03:00:00 1.4 0 Calma 4 Este 0 -- -- 100
2019-03-16 02:00:00 2 3 Este 4 Este 0 -- -- 99
2019-03-16 01:00:00 2.7 0 Calma 3 Este 0 -- -- 98
2019-03-16 00:00:00 3.6 0 Calma 8 Este 0 -- -- 96
2019-03-15 23:00:00 5.1 3 Sudeste 5 Este 0 -- -- 96
2019-03-15 22:00:00 4.7 0 Calma 2 Oeste 0 -- -- 96
2019-03-15 21:00:00 5.5 0 Calma 3 Sudeste 0 -- -- 92
2019-03-15 20:00:00 7.2 0 Calma 8 Oeste 0 -- -- 87
2019-03-15 19:00:00 9.8 5 Oeste 13 Noroeste 0 -- -- 80
2019-03-15 18:00:00 12.7 8 Noroeste 18 Noroeste 0 -- -- 70
2019-03-15 17:00:00 15 11 Noroeste 20 Noroeste 0 -- -- 62
2019-03-15 16:00:00 15.9 9 Noroeste 17 Noroeste 0 -- -- 58
2019-03-15 15:00:00 15.4 9 Oeste 21 Noroeste 0 -- -- 58
2019-03-15 14:00:00 15 8 Oeste 18 Noroeste 0 -- -- 58
2019-03-15 13:00:00 14 9 Noroeste 16 Noroeste 0 -- -- 66
2019-03-15 12:00:00 12.6 4 Norte 13 Noroeste 0 -- -- 61
2019-03-15 11:00:00 10.1 5 Oeste 13 Oeste 0 -- -- 67
2019-03-15 10:00:00 8.2 3 Sudoeste 8 Este 0 -- -- 76
2019-03-15 09:00:00 6.1 5 Este 8 Este 0 -- -- 85
2019-03-15 08:00:00 5.4 0 Calma 2 Sudoeste 0 -- -- 90
2019-03-15 07:00:00 6.2 0 Calma 3 Este 0 -- -- 93
2019-03-15 06:00:00 6.4 0 Calma 2 Sur 0 -- -- 95
2019-03-15 05:00:00 6.6 0 Calma 3 Oeste 0 -- -- 95
2019-03-15 04:00:00 6.6 2 Este 5 Noroeste 0 -- -- 94
2019-03-15 03:00:00 6.7 0 Calma 3 Este 0 -- -- 94
2019-03-15 02:00:00 6.9 2 Este 3 Este 0 -- -- 92
2019-03-15 01:00:00 6.9 0 Calma 2 Sudoeste 0 -- -- 92
2019-03-15 00:00:00 7.1 0 Calma 2 Sur 0 -- -- 92
2019-03-14 23:00:00 7.3 0 Calma 3 Este 0 -- -- 91
2019-03-14 22:00:00 7.4 0 Calma 2 Sudoeste 0 -- -- 90
2019-03-14 21:00:00 7.6 0 Calma 2 Sudeste 0 -- -- 89
2019-03-14 20:00:00 7.8 0 Calma 6 Oeste 0 -- -- 87
2019-03-14 19:00:00 8.1 4 Sudoeste 9 Oeste 0 -- -- 80
2019-03-14 18:00:00 8.3 5 Sudoeste 14 Sur 0 -- -- 79
2019-03-14 17:00:00 8.6 6 Sudoeste 22 Oeste 0 -- -- 79
2019-03-14 16:00:00 9.3 10 Sudoeste 27 Oeste 0 -- -- 76
2019-03-14 15:00:00 11.2 9 Oeste 24 Oeste 0 -- -- 67
2019-03-14 14:00:00 12.5 8 Noroeste 17 Noroeste 0 -- -- 62
2019-03-14 13:00:00 11.7 6 Oeste 16 Noroeste 0 -- -- 64
2019-03-14 12:00:00 10.9 3 Oeste 13 Noroeste 0 -- -- 62
2019-03-14 11:00:00 9.5 6 Noroeste 15 Oeste 0 -- -- 68
2019-03-14 10:00:00 5.6 2 Este 4 Nordeste 0 -- -- 88
2019-03-14 09:00:00 1.4 0 Calma 4 Este 0 -- -- 100
2019-03-14 08:00:00 0.7 0 Calma 6 Este 0 -- -- 99
2019-03-14 07:00:00 1.7 2 Este 3 Este 0 -- -- 95
2019-03-14 06:00:00 3.3 0 Calma 3 Sur 0 -- -- 94
2019-03-14 05:00:00 4.3 0 Calma 4 Sudoeste 0 -- -- 95
2019-03-14 04:00:00 4.9 0 Calma 17 Oeste 0 -- -- 92
2019-03-14 03:00:00 5.2 3 Oeste 20 Oeste 0 -- -- 91
2019-03-14 02:00:00 6.1 10 Oeste 22 Oeste 0 -- -- 83
2019-03-14 01:00:00 5.7 4 Sudoeste 10 Noroeste 0 -- -- 87
2019-03-14 00:00:00 6.1 8 Oeste 19 Noroeste 0 -- -- 82
2019-03-13 23:00:00 5.5 4 Oeste 14 Oeste 0 -- -- 87
2019-03-13 22:00:00 5.7 5 Oeste 15 Oeste 0 -- -- 87
2019-03-13 21:00:00 5.3 4 Sudoeste 16 Noroeste 0 -- -- 89
2019-03-13 20:00:00 6.4 5 Noroeste 24 Oeste 0.2 -- -- 86
2019-03-13 19:00:00 6.6 5 Oeste 24 Oeste 0 -- -- 88
2019-03-13 18:00:00 6.7 9 Oeste 39 Oeste 0.6 -- -- 86
2019-03-13 17:00:00 8.5 13 Noroeste 28 Oeste 0 -- -- 72
2019-03-13 16:00:00 7.6 12 Oeste 32 Oeste 0 -- -- 81
2019-03-13 15:00:00 8.1 9 Oeste 28 Noroeste 0.2 -- -- 78
2019-03-13 14:00:00 7.8 14 Noroeste 30 Oeste 0 -- -- 77
2019-03-13 13:00:00 7.5 14 Oeste 39 Oeste 0 -- -- 75
2019-03-13 12:00:00 8.4 14 Noroeste 35 Noroeste 0 -- -- 69
2019-03-13 11:00:00 7 12 Oeste 29 Oeste 0 -- -- 80
2019-03-13 10:00:00 7 17 Noroeste 30 Noroeste 0 -- -- 75
2019-03-13 09:00:00 5.9 5 Oeste 22 Oeste 0 -- -- 85
2019-03-13 08:00:00 4.7 8 Oeste 21 Oeste 0 -- -- 87
2019-03-13 07:00:00 1.5 0 Calma 4 Este 0 -- -- 100
2019-03-13 06:00:00 1.2 2 Sudeste 3 Este 0 -- -- 100
2019-03-13 05:00:00 1.2 0 Calma 4 Este 0 -- -- 100
2019-03-13 04:00:00 1.4 0 Calma 5 Sudeste 0 -- -- 98
2019-03-13 03:00:00 2.4 2 Este 6 Noroeste 0 -- -- 95
2019-03-13 02:00:00 4.1 2 Sur 17 Norte 0 -- -- 91
2019-03-13 01:00:00 5.9 9 Oeste 19 Noroeste 0 -- -- 84
2019-03-13 00:00:00 6 9 Noroeste 22 Noroeste 0 -- -- 84
2019-03-12 23:00:00 6 5 Oeste 31 Oeste 0.2 -- -- 92
2019-03-12 22:00:00 6.2 10 Oeste 34 Oeste 1 -- -- 90
2019-03-12 21:00:00 6.6 12 Oeste 36 Noroeste 0.8 -- -- 92
2019-03-12 20:00:00 8.1 8 Oeste 25 Oeste 1.4 -- -- 95
2019-03-12 19:00:00 9.6 17 Noroeste 41 Oeste 0 -- -- 90
2019-03-12 18:00:00 14.1 0 Calma 10 Nordeste 0 -- -- 67
2019-03-12 17:00:00 14.1 3 Sur 19 Oeste 0 -- -- 65
2019-03-12 16:00:00 14 6 Noroeste 19 Este 0 -- -- 64
2019-03-12 15:00:00 14.6 6 Sudeste 19 Este 0 -- -- 59
2019-03-12 14:00:00 15.4 9 Oeste 21 Noroeste 0 -- -- 61
2019-03-12 13:00:00 15.3 13 Noroeste 23 Noroeste 0 -- -- 66
2019-03-12 12:00:00 13.5 9 Noroeste 18 Noroeste 0 -- -- 71
2019-03-12 11:00:00 10.7 5 Noroeste 16 Noroeste 0 -- -- 67
2019-03-12 10:00:00 7.3 3 Sudeste 7 Este 0 -- -- 87
2019-03-12 09:00:00 3.2 4 Norte 8 Noroeste 0 -- -- 100
2019-03-12 08:00:00 1.3 2 Sudeste 5 Este 0 -- -- 100
2019-03-12 07:00:00 1 2 Sudeste 5 Este 0 -- -- 100
2019-03-12 06:00:00 1.2 0 Calma 6 Este 0 -- -- 100
2019-03-12 05:00:00 1.4 2 Este 5 Este 0 -- -- 100
2019-03-12 04:00:00 1.7 0 Calma 6 Este 0 -- -- 100
2019-03-12 03:00:00 2 2 Este 4 Este 0 -- -- 100
2019-03-12 02:00:00 2.3 0 Calma 4 Este 0 -- -- 100
2019-03-12 01:00:00 2.7 0 Calma 5 Este 0 -- -- 99
2019-03-12 00:00:00 3.4 2 Este 5 Este 0 -- -- 99
2019-03-11 23:00:00 4.2 0 Calma 3 Sur 0 -- -- 98
2019-03-11 22:00:00 4.8 0 Calma 3 Sudeste 0 -- -- 96
2019-03-11 21:00:00 5.3 0 Calma 5 Este 0 -- -- 94
2019-03-11 20:00:00 6.7 0 Calma 4 Sur 0 -- -- 88
2019-03-11 19:00:00 9.4 2 Sur 12 Oeste 0 -- -- 81
2019-03-11 18:00:00 11.8 8 Noroeste 17 Noroeste 0 -- -- 72
2019-03-11 17:00:00 14.2 10 Noroeste 23 Noroeste 0 -- -- 59
2019-03-11 16:00:00 14.7 5 Nordeste 15 Este 0 -- -- 55
2019-03-11 15:00:00 13.8 7 Este 16 Este 0 -- -- 57
2019-03-11 14:00:00 12.4 9 Este 19 Nordeste 0 -- -- 61
2019-03-11 13:00:00 11.3 5 Sudeste 15 Este 0 -- -- 66
2019-03-11 12:00:00 9.5 3 Norte 8 Noroeste 0 -- -- 64
2019-03-11 11:00:00 8.2 3 Norte 8 Noroeste 0 -- -- 81
2019-03-11 10:00:00 6.7 0 Calma 5 Noroeste 0 -- -- 96
2019-03-11 09:00:00 5.8 0 Calma 3 Norte 0 -- -- 100
2019-03-11 08:00:00 5.3 0 Calma 3 Sur 0 -- -- 99
2019-03-11 07:00:00 6 3 Sudoeste 14 Oeste 0 -- -- 98
2019-03-11 06:00:00 6.4 10 Sudoeste 18 Oeste 0.2 -- -- 93
2019-03-11 05:00:00 6.3 2 Sudoeste 5 Noroeste 0.2 -- -- 100
2019-03-11 04:00:00 6.4 3 Oeste 9 Sudoeste 0.4 -- -- 99
2019-03-11 03:00:00 6.9 9 Oeste 28 Oeste 0.2 -- -- 95
2019-03-11 02:00:00 7.5 10 Oeste 22 Oeste 0.4 -- -- 97
2019-03-11 01:00:00 7.7 4 Oeste 9 Sudoeste 0 -- -- 100
2019-03-11 00:00:00 7.9 0 Calma 13 Oeste 0.6 -- -- 99
2019-03-10 23:00:00 8.1 8 Oeste 16 Oeste 0 -- -- 98
2019-03-10 22:00:00 8.3 2 Oeste 4 Oeste 0 -- -- 100
2019-03-10 21:00:00 8.5 2 Noroeste 5 Noroeste 0 -- -- 99
2019-03-10 20:00:00 8.8 3 Oeste 15 Oeste 0.2 -- -- 98
2019-03-10 19:00:00 9.2 0 Calma 13 Oeste 0.2 -- -- 98
2019-03-10 18:00:00 9.7 6 Oeste 23 Oeste 0.4 -- -- 95
2019-03-10 17:00:00 10.8 5 Oeste 18 Oeste 0.2 -- -- 96
2019-03-10 16:00:00 11.1 5 Oeste 16 Oeste 0 -- -- 94
2019-03-10 15:00:00 11.6 5 Sudoeste 21 Este 0 -- -- 91
2019-03-10 14:00:00 14.6 5 Sur 22 Oeste 0 -- -- 74
2019-03-10 13:00:00 15.7 10 Oeste 22 Noroeste 0 -- -- 70
2019-03-10 12:00:00 14.1 3 Oeste 10 Noroeste 0 -- -- 80
2019-03-10 11:00:00 10.6 3 Sur 7 Sudeste 0 -- -- 99
2019-03-10 10:00:00 9 0 Calma 3 Este 0 -- -- 100
2019-03-10 09:00:00 8.3 2 Sur 5 Sur 0 -- -- 100
2019-03-10 08:00:00 7.5 0 Calma 5 Este 0.2 -- -- 100
2019-03-10 07:00:00 6.8 2 Oeste 6 Sudeste 0.2 -- -- 100
2019-03-10 06:00:00 5.8 0 Calma 4 Sur 0 -- -- 100
2019-03-10 05:00:00 4.6 3 Sudeste 7 Este 0 -- -- 100
2019-03-10 04:00:00 3.5 0 Calma 4 Nordeste 0 -- -- 100
2019-03-10 03:00:00 4.3 0 Calma 3 Este 0 -- -- 100
2019-03-10 02:00:00 4.7 0 Calma 5 Este 0 -- -- 99
2019-03-10 01:00:00 5.7 0 Calma 3 Nordeste 0 -- -- 99
2019-03-10 00:00:00 6.5 0 Calma 4 Este 0 -- -- 97
2019-03-09 23:00:00 7.5 0 Calma 3 Este 0 -- -- 96
2019-03-09 22:00:00 8.5 2 Sudeste 5 Sudeste 0 -- -- 94
2019-03-09 21:00:00 9.7 0 Calma 4 Sudeste 0 -- -- 91
2019-03-09 20:00:00 11.4 0 Calma 14 Oeste 0 -- -- 85
2019-03-09 19:00:00 14.3 3 Oeste 11 Noroeste 0 -- -- 76
2019-03-09 18:00:00 16.8 7 Oeste 15 Noroeste 0 -- -- 68
2019-03-09 17:00:00 17.8 12 Oeste 31 Oeste 0 -- -- 65
2019-03-09 16:00:00 20.2 9 Oeste 20 Oeste 0 -- -- 58
2019-03-09 15:00:00 20.6 7 Noroeste 12 Noroeste 0 -- -- 53
2019-03-09 14:00:00 19.7 3 Sur 11 Este 0 -- -- 50
2019-03-09 13:00:00 17.7 9 Este 16 Este 0 -- -- 58
2019-03-09 12:00:00 16.8 5 Oeste 12 Noroeste 0 -- -- 62
2019-03-09 11:00:00 15 3 Noroeste 7 Noroeste 0 -- -- 72
2019-03-09 10:00:00 11.2 0 Calma 3 Sudeste 0 -- -- 81
2019-03-09 09:00:00 8.7 0 Calma 3 Nordeste 0 -- -- 93
2019-03-09 08:00:00 6.9 0 Calma 3 Este 0 -- -- 99
2019-03-09 07:00:00 6.7 4 Este 6 Este 0 -- -- 98
2019-03-09 06:00:00 6 0 Calma 5 Nordeste 0 -- -- 100
2019-03-09 05:00:00 4.9 2 Este 4 Este 0 -- -- 99
2019-03-09 04:00:00 5 0 Calma 6 Sur 0 -- -- 99
2019-03-09 03:00:00 5.4 0 Calma 5 Este 0 -- -- 96
2019-03-09 02:00:00 6.4 2 Sudoeste 5 Sur 0 -- -- 92
2019-03-09 01:00:00 8.3 4 Sur 7 Este 0 -- -- 90
2019-03-09 00:00:00 8.6 3 Oeste 5 Este 0 -- -- 90
2019-03-08 23:00:00 8.7 0 Calma 14 Nordeste 0 -- -- 88
2019-03-08 22:00:00 8.9 3 Sudeste 10 Este 0 -- -- 87
2019-03-08 21:00:00 8.9 3 Sudoeste 5 Sudoeste 0 -- -- 87
2019-03-08 20:00:00 9.4 0 Calma 10 Noroeste 0 -- -- 84
2019-03-08 19:00:00 10.2 6 Noroeste 13 Oeste 0 -- -- 77
2019-03-08 18:00:00 11.8 3 Noroeste 7 Noroeste 0 -- -- 72
2019-03-08 17:00:00 12.5 4 Sur 18 Oeste 0 -- -- 65
2019-03-08 16:00:00 13.2 7 Oeste 18 Noroeste 0 -- -- 64
2019-03-08 15:00:00 13 4 Sudeste 11 Oeste 0 -- -- 56
2019-03-08 14:00:00 11.5 3 Norte 16 Oeste 0 -- -- 64
2019-03-08 13:00:00 11.5 5 Sur 19 Noroeste 0 -- -- 64
2019-03-08 12:00:00 10.3 8 Oeste 18 Oeste 0 -- -- 67
2019-03-08 11:00:00 9.6 5 Oeste 10 Oeste 0 -- -- 78
2019-03-08 10:00:00 7.3 3 Oeste 14 Noroeste 0.4 -- -- 95
2019-03-08 09:00:00 6.5 2 Oeste 21 Oeste 0.4 -- -- 97
2019-03-08 08:00:00 6.4 12 Oeste 24 Noroeste 0.6 -- -- 95
2019-03-08 07:00:00 6.3 2 Oeste 13 Oeste 2.2 -- -- 99
2019-03-08 06:00:00 6.4 4 Oeste 13 Oeste 2 -- -- 99
2019-03-08 05:00:00 5.5 0 Calma 5 Este 2 -- -- 100
2019-03-08 04:00:00 5.3 0 Calma 9 Sur 1 -- -- 97
2019-03-08 03:00:00 5.5 0 Calma 8 Sur 0 -- -- 90
2019-03-08 02:00:00 5 3 Sudeste 8 Sur 0 -- -- 92
2019-03-08 01:00:00 4.3 0 Calma 5 Este 0 -- -- 92
2019-03-08 00:00:00 4.4 0 Calma 8 Este 0 -- -- 91
2019-03-07 23:00:00 5.4 0 Calma 5 Sur 0 -- -- 87
2019-03-07 22:00:00 6.9 0 Calma 6 Oeste 0 -- -- 82
2019-03-07 21:00:00 7.5 0 Calma 4 Este 0 -- -- 76
2019-03-07 20:00:00 8.9 2 Sudoeste 6 Sudeste 0 -- -- 72
2019-03-07 19:00:00 10.3 3 Este 21 Este 0 -- -- 65
2019-03-07 18:00:00 11.7 4 Este 21 Nordeste 0 -- -- 55
2019-03-07 17:00:00 13 9 Noroeste 26 Noroeste 0 -- -- 47
2019-03-07 16:00:00 12.7 6 Sudeste 22 Noroeste 0 -- -- 46
2019-03-07 15:00:00 13.4 7 Oeste 25 Noroeste 0 -- -- 42
2019-03-07 14:00:00 12.9 10 Noroeste 22 Oeste 0 -- -- 44
2019-03-07 13:00:00 13 9 Noroeste 21 Noroeste 0 -- -- 46
2019-03-07 12:00:00 11.2 7 Noroeste 12 Oeste 0 -- -- 48
2019-03-07 11:00:00 7.8 3 Noroeste 8 Noroeste 0 -- -- 66
2019-03-07 10:00:00 3.8 3 Noroeste 6 Sudeste 0 -- -- 82
2019-03-07 09:00:00 -0.1 0 Calma 5 Este 0 -- -- 99
2019-03-07 08:00:00 -0.6 0 Calma 4 Este 0 -- -- 96
2019-03-07 07:00:00 0.5 0 Calma 5 Sudoeste 0 -- -- 96
2019-03-07 06:00:00 0.8 0 Calma 5 Sur 0 -- -- 98
2019-03-07 05:00:00 0.6 0 Calma 5 Este 0 -- -- 97
2019-03-07 04:00:00 1 0 Calma 10 Sudeste 0 -- -- 95
2019-03-07 03:00:00 1.9 3 Sudeste 6 Sudoeste 0 -- -- 94
2019-03-07 02:00:00 2.7 2 Sudeste 6 Este 0.2 -- -- 91
2019-03-07 01:00:00 4 0 Calma 12 Oeste 0 -- -- 86
2019-03-07 00:00:00 5.8 3 Oeste 23 Noroeste 0 -- -- 81
2019-03-06 23:00:00 6.7 6 Sudoeste 28 Noroeste 0 -- -- 73
2019-03-06 22:00:00 7.8 10 Oeste 39 Oeste 0 -- -- 80
2019-03-06 21:00:00 9.3 16 Noroeste 33 Noroeste 0 -- -- 72
2019-03-06 20:00:00 10.1 7 Oeste 21 Noroeste 0 -- -- 62
2019-03-06 19:00:00 10.6 6 Noroeste 26 Sudoeste 0 -- -- 60
2019-03-06 18:00:00 11.7 10 Sudeste 30 Nordeste 0.2 -- -- 58
2019-03-06 17:00:00 13.6 7 Oeste 28 Norte 0 -- -- 48
2019-03-06 16:00:00 11.2 5 Noroeste 21 Oeste 0 -- -- 71
2019-03-06 15:00:00 10.8 3 Este 26 Este 0 -- -- 78
2019-03-06 14:00:00 9.8 14 Este 32 Este 0.8 -- -- 80
2019-03-06 13:00:00 10.4 13 Nordeste 31 Este 0.2 -- -- 77
2019-03-06 12:00:00 9.6 16 Este 36 Este 1.8 -- -- 82
2019-03-06 11:00:00 9.5 13 Este 46 Este 0.2 -- -- 81
2019-03-06 10:00:00 11.9 12 Este 43 Este 0.2 -- -- 62
2019-03-06 09:00:00 11.2 8 Nordeste 26 Este 0 -- -- 69
2019-03-06 08:00:00 10.7 9 Sudeste 42 Este 0 -- -- 77
2019-03-06 07:00:00 12.3 20 Nordeste 61 Este 1.4 -- -- 72
2019-03-06 06:00:00 13.7 23 Este 52 Noroeste 0.2 -- -- 67
2019-03-06 05:00:00 16.1 19 Este 58 Sudeste 0 -- -- 53
2019-03-06 04:00:00 16 22 Este 67 Este 0 -- -- 54
2019-03-06 03:00:00 16.6 19 Este 62 Este 0 -- -- 51
2019-03-06 02:00:00 16.1 24 Este 73 Este 0 -- -- 58
2019-03-06 01:00:00 15.9 10 Este 27 Este 0 -- -- 56
2019-03-06 00:00:00 15.4 13 Este 43 Este 0 -- -- 60
2019-03-05 23:00:00 15.1 23 Este 51 Este 0 -- -- 62
2019-03-05 22:00:00 13.6 17 Este 38 Este 0 -- -- 68
2019-03-05 21:00:00 13.9 7 Sudeste 44 Este 0 -- -- 63
2019-03-05 20:00:00 13.7 19 Este 43 Este 0 -- -- 64
2019-03-05 19:00:00 13.6 16 Sudeste 39 Nordeste 0 -- -- 61
2019-03-05 18:00:00 14.4 10 Nordeste 49 Noroeste 0 -- -- 54
2019-03-05 17:00:00 15.1 13 Noroeste 49 Noroeste 0 -- -- 49
2019-03-05 16:00:00 15.8 12 Nordeste 45 Noroeste 0 -- -- 46
2019-03-05 15:00:00 15.7 17 Noroeste 42 Noroeste 0 -- -- 45
2019-03-05 14:00:00 15.6 14 Este 41 Este 0 -- -- 44
2019-03-05 13:00:00 15.6 5 Sudoeste 45 Nordeste 0 -- -- 42
2019-03-05 12:00:00 12.9 18 Este 39 Este 0 -- -- 49
2019-03-05 11:00:00 11.1 14 Este 37 Este 0 -- -- 58
2019-03-05 10:00:00 3.8 0 Calma 4 Nordeste 0 -- -- 90
2019-03-05 09:00:00 -0.2 2 Este 4 Sudeste 0 -- -- 100
2019-03-05 08:00:00 -0.4 2 Sudeste 4 Este 0 -- -- 98
2019-03-05 07:00:00 0.2 3 Este 4 Este 0 -- -- 98
2019-03-05 06:00:00 0.9 0 Calma 5 Este 0 -- -- 97
2019-03-05 05:00:00 1.9 3 Sur 8 Sur 0 -- -- 95
2019-03-05 04:00:00 3.3 2 Sudoeste 6 Sur 0 -- -- 94
2019-03-05 03:00:00 3.9 0 Calma 5 Este 0 -- -- 93
2019-03-05 02:00:00 4.7 2 Este 9 Oeste 0 -- -- 94
2019-03-05 01:00:00 4.7 0 Calma 4 Noroeste 0 -- -- 92
2019-03-05 00:00:00 5.5 0 Calma 3 Este 0 -- -- 88
2019-03-04 23:00:00 6.1 2 Oeste 4 Este 0 -- -- 87
2019-03-04 22:00:00 7 2 Sudeste 4 Este 0 -- -- 85
2019-03-04 21:00:00 7.3 0 Calma 4 Este 0 -- -- 82
2019-03-04 20:00:00 8 2 Sur 5 Oeste 0 -- -- 77
2019-03-04 19:00:00 9.3 2 Sudeste 12 Oeste 0 -- -- 71
2019-03-04 18:00:00 9.9 4 Sudeste 13 Este 0 -- -- 66
2019-03-04 17:00:00 10.2 8 Oeste 17 Oeste 0 -- -- 66
2019-03-04 16:00:00 10.5 9 Sudoeste 22 Oeste 0 -- -- 61
2019-03-04 15:00:00 11.3 4 Sur 19 Este 0 -- -- 63
2019-03-04 14:00:00 11.6 6 Este 25 Este 0 -- -- 64
2019-03-04 13:00:00 11.8 8 Sudeste 22 Noroeste 0 -- -- 71
2019-03-04 12:00:00 13 4 Noroeste 10 Oeste 0 -- -- 63
2019-03-04 11:00:00 11.3 2 Oeste 13 Este 0 -- -- 70
2019-03-04 10:00:00 9.8 4 Este 9 Este 0 -- -- 79
2019-03-04 09:00:00 9.2 5 Este 13 Este 0 -- -- 82
2019-03-04 08:00:00 9.1 0 Calma 11 Norte 0 -- -- 85
2019-03-04 07:00:00 9.2 3 Norte 7 Este 0 -- -- 85
2019-03-04 06:00:00 9.5 3 Sudeste 14 Oeste 0 -- -- 87
2019-03-04 05:00:00 9.8 6 Sudeste 23 Este 0 -- -- 91
2019-03-04 04:00:00 9.2 3 Sudoeste 14 Noroeste 0 -- -- 89
2019-03-04 03:00:00 10.8 2 Oeste 12 Oeste 0 -- -- 83
2019-03-04 02:00:00 13.2 9 Oeste 23 Noroeste 0 -- -- 74
2019-03-04 01:00:00 15.6 14 Noroeste 41 Noroeste 0 -- -- 54
2019-03-04 00:00:00 15.9 14 Noroeste 55 Noroeste 0 -- -- 51
2019-03-03 23:00:00 16.9 21 Oeste 68 Noroeste 0 -- -- 45
2019-03-03 22:00:00 16.8 15 Norte 63 Noroeste 0 -- -- 42
2019-03-03 21:00:00 16.7 7 Norte 62 Noroeste 0 -- -- 36
2019-03-03 20:00:00 18.1 17 Noroeste 40 Oeste 0 -- -- 27
2019-03-03 19:00:00 19 8 Noroeste 42 Sudoeste 0 -- -- 22
2019-03-03 18:00:00 20 14 Nordeste 59 Noroeste 0 -- -- 18
2019-03-03 17:00:00 21.4 14 Noroeste 44 Noroeste 0 -- -- 16
2019-03-03 16:00:00 21.6 13 Norte 47 Noroeste 0 -- -- 17
2019-03-03 15:00:00 22.5 16 Oeste 55 Noroeste 0 -- -- 14
2019-03-03 14:00:00 23.3 10 Nordeste 30 Noroeste 0 -- -- 18
2019-03-03 13:00:00 19.6 7 Nordeste 33 Sudeste 0 -- -- 22
2019-03-03 12:00:00 18.8 6 Noroeste 23 Noroeste 0 -- -- 21
2019-03-03 11:00:00 13 5 Oeste 17 Este 0 -- -- 41
2019-03-03 10:00:00 8 5 Este 11 Oeste 0 -- -- 72
2019-03-03 09:00:00 5.2 5 Sudeste 17 Sur 0 -- -- 84
2019-03-03 08:00:00 3.5 4 Sudeste 6 Este 0 -- -- 91
2019-03-03 07:00:00 3.2 3 Este 8 Nordeste 0 -- -- 96
2019-03-03 06:00:00 3.4 2 Sudeste 8 Sudoeste 0 -- -- 97
2019-03-03 05:00:00 2.6 3 Sudeste 9 Sur 0 -- -- 99
2019-03-03 04:00:00 2 4 Este 8 Este 0 -- -- 100
2019-03-03 03:00:00 2.3 2 Sudeste 4 Este 0 -- -- 99
2019-03-03 02:00:00 3 0 Calma 5 Este 0 -- -- 98
2019-03-03 01:00:00 3.6 0 Calma 5 Este 0 -- -- 97
2019-03-03 00:00:00 4.5 0 Calma 3 Sudeste 0 -- -- 94
2019-03-02 23:00:00 5.4 0 Calma 3 Este 0 -- -- 92
2019-03-02 22:00:00 6 2 Este 4 Este 0 -- -- 89
2019-03-02 21:00:00 7.7 0 Calma 4 Este 0 -- -- 81
2019-03-02 20:00:00 9.4 0 Calma 3 Sur 0 -- -- 78
2019-03-02 19:00:00 11.6 0 Calma 11 Sudoeste 0 -- -- 70
2019-03-02 18:00:00 14.9 6 Oeste 12 Noroeste 0 -- -- 60
2019-03-02 17:00:00 18.1 3 Nordeste 13 Este 0 -- -- 47
2019-03-02 16:00:00 18 5 Este 19 Nordeste 0 -- -- 49
2019-03-02 15:00:00 18.1 7 Sudeste 22 Sudeste 0 -- -- 51
2019-03-02 14:00:00 17.3 6 Noroeste 14 Noroeste 0 -- -- 43
2019-03-02 13:00:00 16.8 7 Oeste 17 Oeste 0 -- -- 46
2019-03-02 12:00:00 15.8 6 Noroeste 14 Noroeste 0 -- -- 47
2019-03-02 11:00:00 11.7 0 Calma 4 Sudeste 0 -- -- 75
2019-03-02 10:00:00 6.2 2 Este 6 Sur 0 -- -- 100
2019-03-02 09:00:00 2.4 0 Calma 6 Este 0 -- -- 100
2019-03-02 08:00:00 2.5 0 Calma 7 Este 0 -- -- 100
2019-03-02 07:00:00 3.4 0 Calma 5 Oeste 0 -- -- 100
2019-03-02 06:00:00 3.8 0 Calma 4 Este 0 -- -- 100
2019-03-02 05:00:00 2.4 0 Calma 4 Este 0 -- -- 100
2019-03-02 04:00:00 2.9 0 Calma 5 Este 0 -- -- 99
2019-03-02 03:00:00 3.8 0 Calma 5 Este 0 -- -- 97
2019-03-02 02:00:00 4.7 2 Sudeste 4 Este 0 -- -- 98
2019-03-02 01:00:00 4.9 0 Calma 6 Este 0 -- -- 97
2019-03-02 00:00:00 5.1 3 Sudeste 6 Este 0 -- -- 97
2019-03-01 23:00:00 5.3 0 Calma 4 Oeste 0 -- -- 96
2019-03-01 22:00:00 5.8 2 Este 7 Este 0 -- -- 95
2019-03-01 21:00:00 6.2 0 Calma 3 Sur 0 -- -- 92
2019-03-01 20:00:00 7.7 0 Calma 4 Sudoeste 0 -- -- 87
2019-03-01 19:00:00 9.7 3 Sudoeste 11 Oeste 0 -- -- 80
2019-03-01 18:00:00 12.4 5 Noroeste 17 Noroeste 0 -- -- 72
2019-03-01 17:00:00 15.5 9 Noroeste 19 Noroeste 0 -- -- 64
2019-03-01 16:00:00 16.4 9 Noroeste 18 Noroeste 0 -- -- 59
2019-03-01 15:00:00 16.2 9 Oeste 21 Noroeste 0 -- -- 57
2019-03-01 14:00:00 15.8 8 Oeste 18 Noroeste 0 -- -- 56
2019-03-01 13:00:00 15.4 10 Noroeste 18 Noroeste 0 -- -- 62
2019-03-01 12:00:00 13.8 6 Noroeste 12 Noroeste 0 -- -- 61
2019-03-01 11:00:00 8.5 0 Calma 3 Sudeste 0 -- -- 85
2019-03-01 10:00:00 3.5 2 Sudeste 4 Este 0 -- -- 100
2019-03-01 09:00:00 0 2 Este 4 Este 0 -- -- 100
2019-03-01 08:00:00 -0.4 0 Calma 4 Este 0 -- -- 100
2019-03-01 07:00:00 -0.2 2 Este 5 Nordeste 0 -- -- 100
2019-03-01 06:00:00 0.2 0 Calma 5 Este 0 -- -- 100
2019-03-01 05:00:00 0.3 0 Calma 4 Este 0 -- -- 100
2019-03-01 04:00:00 0.8 3 Sudeste 4 Este 0 -- -- 100
2019-03-01 03:00:00 1.2 0 Calma 4 Este 0 -- -- 100
2019-03-01 02:00:00 1.6 0 Calma 4 Este 0 -- -- 100
2019-03-01 01:00:00 2.1 0 Calma 4 Este 0 -- -- 99
2019-03-01 00:00:00 2.7 0 Calma 5 Este 0 -- -- 99
2019-02-28 23:00:00 3.4 0 Calma 4 Este 0 -- -- 97
2019-02-28 22:00:00 4.3 0 Calma 3 Nordeste 0 -- -- 94
2019-02-28 21:00:00 5.6 0 Calma 3 Nordeste 0 -- -- 90
2019-02-28 20:00:00 7 0 Calma 5 Sudoeste 0 -- -- 86
2019-02-28 19:00:00 9.3 2 Sudoeste 4 Sudoeste 0 -- -- 80
2019-02-28 18:00:00 11.8 3 Oeste 13 Oeste 0 -- -- 75
2019-02-28 17:00:00 13.1 6 Noroeste 13 Oeste 0 -- -- 70
2019-02-28 16:00:00 14.5 7 Oeste 16 Oeste 0 -- -- 69
2019-02-28 15:00:00 14.6 7 Oeste 23 Noroeste 0 -- -- 66
2019-02-28 14:00:00 15.3 9 Noroeste 25 Oeste 0 -- -- 61
2019-02-28 13:00:00 14.9 7 Oeste 18 Oeste 0 -- -- 62
2019-02-28 12:00:00 14.2 8 Noroeste 14 Noroeste 0 -- -- 59
2019-02-28 11:00:00 9.7 0 Calma 4 Este 0 -- -- 79
2019-02-28 10:00:00 4.2 0 Calma 3 Este 0 -- -- 100
2019-02-28 09:00:00 1.4 0 Calma 4 Este 0 -- -- 100
2019-02-28 08:00:00 1 0 Calma 4 Este 0 -- -- 100
2019-02-28 07:00:00 1.5 0 Calma 5 Este 0 -- -- 100
2019-02-28 06:00:00 1.7 2 Sudeste 4 Este 0 -- -- 99
2019-02-28 05:00:00 2.4 3 Este 4 Este 0 -- -- 99
2019-02-28 04:00:00 3.1 0 Calma 3 Este 0 -- -- 96
2019-02-28 03:00:00 3.1 0 Calma 4 Este 0 -- -- 99
2019-02-28 02:00:00 2.8 0 Calma 4 Sudeste 0 -- -- 96
2019-02-28 01:00:00 3.4 0 Calma 4 Nordeste 0 -- -- 94
2019-02-28 00:00:00 4 2 Este 4 Nordeste 0 -- -- 92
2019-02-27 23:00:00 4.6 0 Calma 5 Noroeste 0 -- -- 91
2019-02-27 22:00:00 5.6 0 Calma 5 Sudeste 0 -- -- 87
2019-02-27 21:00:00 7 0 Calma 5 Este 0 -- -- 80
2019-02-27 20:00:00 8.8 3 Sudeste 8 Este 0 -- -- 72
2019-02-27 19:00:00 11.4 0 Calma 10 Oeste 0 -- -- 62
2019-02-27 18:00:00 15.3 7 Noroeste 19 Noroeste 0 -- -- 50
2019-02-27 17:00:00 18.6 8 Oeste 22 Noroeste 0 -- -- 37
2019-02-27 16:00:00 21 7 Noroeste 25 Oeste 0 -- -- 31
2019-02-27 15:00:00 21.8 15 Oeste 25 Oeste 0 -- -- 28
2019-02-27 14:00:00 23.7 6 Oeste 16 Noroeste 0 -- -- 27
2019-02-27 13:00:00 23.4 6 Oeste 13 Noroeste 0 -- -- 21
2019-02-27 12:00:00 21.5 3 Nordeste 13 Este 0 -- -- 27
2019-02-27 11:00:00 14.6 3 Sur 6 Este 0 -- -- 45
2019-02-27 10:00:00 8.5 2 Sudoeste 13 Este 0 -- -- 65
2019-02-27 09:00:00 3.6 3 Sudoeste 9 Este 0 -- -- 84
2019-02-27 08:00:00 3.1 4 Sudeste 8 Este 0 -- -- 85
2019-02-27 07:00:00 3.6 2 Este 8 Este 0 -- -- 84
2019-02-27 06:00:00 4.4 2 Oeste 10 Sudoeste 0 -- -- 78
2019-02-27 05:00:00 4.7 3 Sudoeste 9 Sur 0 -- -- 78
2019-02-27 04:00:00 5.4 3 Noroeste 8 Este 0 -- -- 77
2019-02-27 03:00:00 7 2 Este 14 Oeste 0 -- -- 74
2019-02-27 02:00:00 7.3 5 Sudoeste 15 Sur 0 -- -- 72
2019-02-27 01:00:00 9 4 Noroeste 23 Sudoeste 0 -- -- 66
2019-02-27 00:00:00 8.2 7 Sudeste 21 Este 0 -- -- 73
2019-02-26 23:00:00 7.2 4 Este 11 Sudeste 0 -- -- 75
2019-02-26 22:00:00 8.3 0 Calma 11 Sudeste 0 -- -- 71
2019-02-26 21:00:00 10.6 0 Calma 16 Sudeste 0 -- -- 60
2019-02-26 20:00:00 12.4 8 Sudeste 13 Este 0 -- -- 55
2019-02-26 19:00:00 14.1 2 Sudeste 13 Este 0 -- -- 50
2019-02-26 18:00:00 17.9 4 Sudeste 13 Noroeste 0 -- -- 37
2019-02-26 17:00:00 22.8 4 Nordeste 25 Este 0 -- -- 27
2019-02-26 16:00:00 23.5 9 Este 25 Este 0 -- -- 29
2019-02-26 15:00:00 23.1 7 Este 29 Sudeste 0 -- -- 30
2019-02-26 14:00:00 22.4 10 Este 28 Este 0 -- -- 35
2019-02-26 13:00:00 20.8 11 Este 30 Este 0 -- -- 36
2019-02-26 12:00:00 19.7 13 Este 29 Este 0 -- -- 39
2019-02-26 11:00:00 16 10 Este 28 Este 0 -- -- 47
2019-02-26 10:00:00 6 0 Calma 4 Sur 0 -- -- 85
2019-02-26 09:00:00 1.2 2 Sudeste 8 Nordeste 0 -- -- 96
2019-02-26 08:00:00 0.5 2 Sudeste 6 Este 0 -- -- 96
2019-02-26 07:00:00 0.8 2 Sudeste 5 Sudeste 0 -- -- 95
2019-02-26 06:00:00 0.9 2 Sudeste 5 Este 0 -- -- 93
2019-02-26 05:00:00 1.2 3 Este 5 Este 0 -- -- 93
2019-02-26 04:00:00 1.4 2 Sudeste 6 Este 0 -- -- 93
2019-02-26 03:00:00 1.8 4 Este 6 Nordeste 0 -- -- 93
2019-02-26 02:00:00 2.6 0 Calma 5 Este 0 -- -- 92
2019-02-26 01:00:00 3 0 Calma 4 Este 0 -- -- 92
2019-02-26 00:00:00 3.8 0 Calma 6 Nordeste 0 -- -- 90
2019-02-25 23:00:00 4.9 0 Calma 4 Este 0 -- -- 87
2019-02-25 22:00:00 5.8 0 Calma 5 Sur 0 -- -- 83
2019-02-25 21:00:00 7.2 2 Sudeste 4 Sudeste 0 -- -- 79
2019-02-25 20:00:00 9.3 2 Sudeste 4 Este 0 -- -- 71
2019-02-25 19:00:00 12.4 0 Calma 6 Oeste 0 -- -- 61
2019-02-25 18:00:00 15.6 5 Sudoeste 13 Noroeste 0 -- -- 52
2019-02-25 17:00:00 20.3 8 Oeste 18 Oeste 0 -- -- 37
2019-02-25 16:00:00 22.1 7 Oeste 19 Oeste 0 -- -- 40
2019-02-25 15:00:00 22.2 9 Oeste 19 Oeste 0 -- -- 33
2019-02-25 14:00:00 22.1 9 Oeste 21 Noroeste 0 -- -- 30
2019-02-25 13:00:00 21.2 9 Noroeste 15 Noroeste 0 -- -- 35
2019-02-25 12:00:00 18.4 6 Oeste 13 Oeste 0 -- -- 36
2019-02-25 11:00:00 12.1 0 Calma 3 Sur 0 -- -- 63
2019-02-25 10:00:00 5.2 0 Calma 4 Sudeste 0 -- -- 89
2019-02-25 09:00:00 1 0 Calma 5 Este 0 -- -- 99
2019-02-25 08:00:00 0.9 3 Sudeste 5 Este 0 -- -- 98
2019-02-25 07:00:00 1.1 0 Calma 5 Este 0 -- -- 97
2019-02-25 06:00:00 1.4 2 Este 4 Este 0 -- -- 96
2019-02-25 05:00:00 1.4 0 Calma 4 Este 0 -- -- 97
2019-02-25 04:00:00 1.9 2 Sudeste 6 Este 0 -- -- 96
2019-02-25 03:00:00 2 2 Sudeste 5 Este 0 -- -- 95
2019-02-25 02:00:00 2.3 2 Este 6 Este 0 -- -- 95
2019-02-25 01:00:00 2.7 2 Sudeste 5 Nordeste 0 -- -- 93
2019-02-25 00:00:00 3.2 2 Este 5 Nordeste 0 -- -- 91
2019-02-24 23:00:00 4.1 2 Sudeste 4 Este 0 -- -- 89
2019-02-24 22:00:00 5.1 2 Este 4 Este 0 -- -- 85
2019-02-24 21:00:00 6.4 0 Calma 4 Este 0 -- -- 81
2019-02-24 20:00:00 8.3 0 Calma 4 Este 0 -- -- 74
2019-02-24 19:00:00 11 0 Calma 7 Oeste 0 -- -- 63
2019-02-24 18:00:00 14.2 3 Oeste 12 Noroeste 0 -- -- 57
2019-02-24 17:00:00 18.6 8 Noroeste 17 Noroeste 0 -- -- 47
2019-02-24 16:00:00 20 11 Noroeste 17 Noroeste 0 -- -- 40
2019-02-24 15:00:00 20.5 9 Noroeste 19 Oeste 0 -- -- 38
2019-02-24 14:00:00 19.8 10 Noroeste 18 Noroeste 0 -- -- 35
2019-02-24 13:00:00 18.6 11 Noroeste 16 Noroeste 0 -- -- 36
2019-02-24 12:00:00 14.2 3 Oeste 6 Noroeste 0 -- -- 46
2019-02-24 11:00:00 9.1 0 Calma 5 Sudeste 0 -- -- 73
2019-02-24 10:00:00 4.3 0 Calma 7 Este 0 -- -- 89
2019-02-24 09:00:00 0.9 0 Calma 4 Este 0 -- -- 99
2019-02-24 08:00:00 1.2 0 Calma 4 Este 0 -- -- 98
2019-02-24 07:00:00 1.8 0 Calma 4 Este 0 -- -- 97
2019-02-24 06:00:00 2.6 2 Este 4 Este 0 -- -- 98
2019-02-24 05:00:00 3.2 0 Calma 5 Este 0 -- -- 98
2019-02-24 04:00:00 3.6 0 Calma 5 Este 0 -- -- 100
2019-02-24 03:00:00 3.4 2 Este 5 Este 0 -- -- 99
2019-02-24 02:00:00 3.4 2 Sudeste 4 Este 0 -- -- 99
2019-02-24 01:00:00 3.5 2 Sudeste 5 Este 0 -- -- 99
2019-02-24 00:00:00 3.8 3 Sudeste 5 Este 0 -- -- 95
2019-02-23 23:00:00 4.6 0 Calma 5 Este 0 -- -- 93
2019-02-23 22:00:00 5.6 0 Calma 6 Sudeste 0 -- -- 90
2019-02-23 21:00:00 6.7 0 Calma 6 Sur 0 -- -- 87
2019-02-23 20:00:00 8.7 0 Calma 4 Este 0 -- -- 79
2019-02-23 19:00:00 11.4 0 Calma 8 Noroeste 0 -- -- 70
2019-02-23 18:00:00 14.7 4 Noroeste 11 Noroeste 0 -- -- 59
2019-02-23 17:00:00 16 3 Oeste 10 Oeste 0 -- -- 53
2019-02-23 16:00:00 16.4 9 Oeste 23 Oeste 0 -- -- 52
2019-02-23 15:00:00 17 8 Noroeste 17 Oeste 0 -- -- 47
2019-02-23 14:00:00 17.2 8 Noroeste 17 Noroeste 0 -- -- 42
2019-02-23 13:00:00 17.1 9 Noroeste 18 Noroeste 0 -- -- 39
2019-02-23 12:00:00 17 8 Noroeste 13 Noroeste 0 -- -- 38
2019-02-23 11:00:00 10.8 0 Calma 4 Sur 0 -- -- 65
2019-02-23 10:00:00 4.5 0 Calma 3 Nordeste 0 -- -- 87
2019-02-23 09:00:00 0.4 0 Calma 4 Este 0 -- -- 97
2019-02-23 08:00:00 -0.3 0 Calma 4 Este 0 -- -- 97
2019-02-23 07:00:00 0 0 Calma 4 Este 0 -- -- 96
2019-02-23 06:00:00 0.2 0 Calma 4 Este 0 -- -- 95
2019-02-23 05:00:00 0.3 2 Sudeste 5 Este 0 -- -- 96
2019-02-23 04:00:00 0.7 3 Este 5 Este 0 -- -- 94
2019-02-23 03:00:00 0.9 0 Calma 5 Este 0 -- -- 93
2019-02-23 02:00:00 1.4 0 Calma 4 Este 0 -- -- 91
2019-02-23 01:00:00 2.1 0 Calma 4 Este 0 -- -- 89
2019-02-23 00:00:00 2.9 3 Sudeste 6 Este 0 -- -- 89
2019-02-22 23:00:00 4 0 Calma 5 Este 0 -- -- 87
2019-02-22 22:00:00 5.3 0 Calma 4 Este 0 -- -- 84
2019-02-22 21:00:00 6.8 3 Sudeste 5 Sudeste 0 -- -- 80
2019-02-22 20:00:00 8.9 0 Calma 4 Sur 0 -- -- 75
2019-02-22 19:00:00 12.1 0 Calma 4 Sudeste 0 -- -- 64
2019-02-22 18:00:00 15.5 3 Sudoeste 13 Oeste 0 -- -- 53
2019-02-22 17:00:00 18.7 5 Oeste 14 Noroeste 0 -- -- 41
2019-02-22 16:00:00 21.3 6 Noroeste 15 Noroeste 0 -- -- 33
2019-02-22 15:00:00 21.5 10 Noroeste 18 Noroeste 0 -- -- 31
2019-02-22 14:00:00 21 6 Oeste 14 Oeste 0 -- -- 29
2019-02-22 13:00:00 19.4 9 Este 15 Nordeste 0 -- -- 27
2019-02-22 12:00:00 15.7 0 Calma 3 Oeste 0 -- -- 53
2019-02-22 11:00:00 9.5 0 Calma 2 Sur 0 -- -- 67
2019-02-22 10:00:00 3.3 0 Calma 4 Este 0 -- -- 92
2019-02-22 09:00:00 0 0 Calma 5 Nordeste 0 -- -- 98
2019-02-22 08:00:00 -0.2 0 Calma 5 Este 0 -- -- 97
2019-02-22 07:00:00 0 3 Este 4 Sudeste 0 -- -- 98
2019-02-22 06:00:00 0.3 2 Este 5 Este 0 -- -- 98
2019-02-22 05:00:00 0.5 3 Este 6 Este 0 -- -- 98
2019-02-22 04:00:00 0.8 2 Sudeste 5 Este 0 -- -- 96
2019-02-22 03:00:00 1.2 3 Este 6 Este 0 -- -- 95
2019-02-22 02:00:00 2 4 Este 10 Este 0 -- -- 92
2019-02-22 01:00:00 2.6 4 Este 13 Sur 0 -- -- 88
2019-02-22 00:00:00 2.7 3 Este 11 Sudoeste 0 -- -- 89
2019-02-21 23:00:00 3.3 5 Este 9 Este 0 -- -- 87
2019-02-21 22:00:00 4.3 2 Este 8 Este 0 -- -- 84
2019-02-21 21:00:00 5.9 3 Este 6 Este 0 -- -- 77
2019-02-21 20:00:00 7.9 2 Sudoeste 8 Este 0 -- -- 69
2019-02-21 19:00:00 11.4 5 Sudeste 15 Este 0 -- -- 55
2019-02-21 18:00:00 15.3 7 Este 19 Este 0 -- -- 43
2019-02-21 17:00:00 18.2 4 Sudeste 21 Este 0 -- -- 37
2019-02-21 16:00:00 19.1 3 Norte 20 Este 0 -- -- 31
2019-02-21 15:00:00 18.9 9 Sudeste 29 Este 0 -- -- 36
2019-02-21 14:00:00 18.5 6 Oeste 15 Noroeste 0 -- -- 30
2019-02-21 13:00:00 17.6 6 Noroeste 13 Noroeste 0 -- -- 37
2019-02-21 12:00:00 13.9 0 Calma 3 Sur 0 -- -- 54
2019-02-21 11:00:00 7.7 0 Calma 4 Sudeste 0 -- -- 78
2019-02-21 10:00:00 1.4 3 Este 5 Este 0 -- -- 99
2019-02-21 09:00:00 -1.2 0 Calma 4 Este 0 -- -- 99
2019-02-21 08:00:00 -1.4 2 Sudeste 6 Este 0 -- -- 97
2019-02-21 07:00:00 -1.4 0 Calma 6 Este 0 -- -- 97
2019-02-21 06:00:00 -1.3 0 Calma 5 Este 0 -- -- 97
2019-02-21 05:00:00 -1.2 0 Calma 4 Este 0 -- -- 98
2019-02-21 04:00:00 -1 2 Sudeste 5 Este 0 -- -- 98
2019-02-21 03:00:00 -0.6 0 Calma 4 Nordeste 0 -- -- 98
2019-02-21 02:00:00 -0.3 0 Calma 4 Este 0 -- -- 98
2019-02-21 01:00:00 0.4 0 Calma 4 Nordeste 0 -- -- 98
2019-02-21 00:00:00 1.1 0 Calma 5 Este 0 -- -- 98
2019-02-20 23:00:00 1.9 0 Calma 4 Nordeste 0 -- -- 98
2019-02-20 22:00:00 3 0 Calma 4 Este 0 -- -- 95
2019-02-20 21:00:00 4.2 0 Calma 5 Este 0 -- -- 92
2019-02-20 20:00:00 6 0 Calma 5 Sudeste 0 -- -- 88
2019-02-20 19:00:00 8.2 0 Calma 9 Noroeste 0 -- -- 83
2019-02-20 18:00:00 11.1 4 Oeste 15 Noroeste 0 -- -- 74
2019-02-20 17:00:00 13.9 8 Noroeste 20 Oeste 0 -- -- 65
2019-02-20 16:00:00 15.7 6 Oeste 18 Noroeste 0 -- -- 57
2019-02-20 15:00:00 16.3 8 Noroeste 17 Noroeste 0 -- -- 48
2019-02-20 14:00:00 15.8 9 Noroeste 15 Noroeste 0 -- -- 52
2019-02-20 13:00:00 14.7 9 Noroeste 15 Noroeste 0 -- -- 54
2019-02-20 12:00:00 12.1 7 Noroeste 13 Noroeste 0 -- -- 64
2019-02-20 11:00:00 6.6 0 Calma 5 Este 0 -- -- 100
2019-02-20 10:00:00 2.4 0 Calma 7 Este 0 -- -- 100
2019-02-20 09:00:00 -0.1 0 Calma 5 Nordeste 0 -- -- 100
2019-02-20 08:00:00 -0.1 0 Calma 7 Este 0 -- -- 100
2019-02-20 07:00:00 0.3 3 Sudeste 8 Este 0 -- -- 100
2019-02-20 06:00:00 0.6 3 Sudeste 7 Este 0 -- -- 100
2019-02-20 05:00:00 0.9 4 Sur 10 Sur 0 -- -- 100
2019-02-20 04:00:00 0.6 5 Sudeste 8 Este 0 -- -- 100
2019-02-20 03:00:00 1.1 2 Este 6 Este 0 -- -- 100
2019-02-20 02:00:00 1.5 3 Este 6 Sur 0 -- -- 100
2019-02-20 01:00:00 2 4 Este 7 Sur 0 -- -- 100
2019-02-20 00:00:00 2.6 3 Sudeste 7 Este 0 -- -- 98